RYR84BB EGCC-EDDK
Flight info
| Callsign | RYR84BB |
|---|---|
| Flight time | N/A |
| Altitude | 37000 |
| Route | SONEX L975 DESIG L603 LAMSO/N0460F350 DCT EVELI DCT PAM L620 SONEB/N0415F230 Z841 GETNI T858 KOPAG KOPAG1B |
| Aircraft | B738/M-SDE2E3FGHIRWXY/LB1 |
Departure
| Time | 2026-05-07 16:57 |
|---|---|
| Airport | Manchester Airport (EGCC) |
Arrival
| Time | N/A |
|---|---|
| Airport | Cologne Bonn Airport (EDDK) |
| Time | Latitude | Longitude | Altitude | Speed | Heading |
|---|---|---|---|---|---|
| 2026-05-07 16:29 | 53.36063 | -2.26843 | 254 ft | 0 kts | 315° |
| 2026-05-07 16:50 | 53.36058 | -2.26835 | 254 ft | 2 kts | 314° |
| 2026-05-07 16:50 | 53.36044 | -2.26811 | 254 ft | 3 kts | 314° |
| 2026-05-07 16:50 | 53.36031 | -2.26787 | 254 ft | 3 kts | 300° |
| 2026-05-07 16:50 | 53.36026 | -2.26760 | 254 ft | 3 kts | 258° |
| 2026-05-07 16:51 | 53.36033 | -2.26734 | 254 ft | 2 kts | 231° |
| 2026-05-07 16:51 | 53.36042 | -2.26715 | 254 ft | 3 kts | 231° |
| 2026-05-07 16:51 | 53.36049 | -2.26702 | 254 ft | 0 kts | 231° |
| 2026-05-07 16:53 | 53.36048 | -2.26704 | 254 ft | 1 kts | 231° |
| 2026-05-07 16:53 | 53.36027 | -2.26746 | 254 ft | 8 kts | 231° |
| 2026-05-07 16:53 | 53.35980 | -2.26739 | 254 ft | 10 kts | 148° |
| 2026-05-07 16:54 | 53.35900 | -2.26707 | 256 ft | 14 kts | 172° |
| 2026-05-07 16:54 | 53.35807 | -2.26678 | 263 ft | 15 kts | 172° |
| 2026-05-07 16:54 | 53.35689 | -2.26646 | 262 ft | 19 kts | 170° |
| 2026-05-07 16:54 | 53.35548 | -2.26674 | 256 ft | 22 kts | 220° |
| 2026-05-07 16:55 | 53.35453 | -2.26869 | 252 ft | 21 kts | 231° |
| 2026-05-07 16:55 | 53.35361 | -2.27059 | 248 ft | 21 kts | 231° |
| 2026-05-07 16:55 | 53.35261 | -2.27215 | 245 ft | 18 kts | 195° |
| 2026-05-07 16:55 | 53.35164 | -2.27246 | 243 ft | 14 kts | 192° |
| 2026-05-07 16:56 | 53.35091 | -2.27271 | 242 ft | 10 kts | 191° |
| 2026-05-07 16:56 | 53.35024 | -2.27299 | 240 ft | 10 kts | 205° |
| 2026-05-07 16:56 | 53.34886 | -2.27575 | 232 ft | 47 kts | 231° |
| 2026-05-07 16:57 | 53.34522 | -2.28323 | 227 ft | 117 kts | 231° |
| 2026-05-07 16:57 | 53.33891 | -2.29635 | 306 ft | 164 kts | 231° |
| 2026-05-07 16:57 | 53.33204 | -2.31107 | 1221 ft | 158 kts | 231° |
| 2026-05-07 16:57 | 53.32507 | -2.32603 | 1885 ft | 173 kts | 231° |
| 2026-05-07 16:58 | 53.31846 | -2.34526 | 2257 ft | 208 kts | 249° |
| 2026-05-07 16:58 | 53.31658 | -2.37039 | 2519 ft | 235 kts | 278° |
| 2026-05-07 16:58 | 53.32312 | -2.39624 | 3017 ft | 250 kts | 310° |
| 2026-05-07 16:58 | 53.33768 | -2.41277 | 3619 ft | 260 kts | 343° |
| 2026-05-07 16:59 | 53.35545 | -2.41938 | 4502 ft | 263 kts | 348° |
| 2026-05-07 16:59 | 53.37339 | -2.42621 | 5423 ft | 266 kts | 352° |
| 2026-05-07 16:59 | 53.39153 | -2.42215 | 6308 ft | 268 kts | 26° |
| 2026-05-07 16:59 | 53.40522 | -2.40177 | 7143 ft | 273 kts | 57° |
| 2026-05-07 17:00 | 53.41352 | -2.37272 | 7916 ft | 279 kts | 66° |
| 2026-05-07 17:00 | 53.42080 | -2.34212 | 8690 ft | 285 kts | 68° |
| 2026-05-07 17:00 | 53.42801 | -2.31087 | 9514 ft | 289 kts | 68° |
| 2026-05-07 17:00 | 53.43539 | -2.27911 | 10267 ft | 295 kts | 67° |
| 2026-05-07 17:01 | 53.44318 | -2.24594 | 10552 ft | 318 kts | 67° |
| 2026-05-07 17:01 | 53.45166 | -2.21019 | 10749 ft | 341 kts | 67° |
| 2026-05-07 17:01 | 53.45761 | -2.18520 | 10985 ft | 352 kts | 67° |
| 2026-05-07 17:01 | 53.46995 | -2.13346 | 11863 ft | 361 kts | 67° |
| 2026-05-07 17:02 | 53.47615 | -2.10747 | 12359 ft | 363 kts | 67° |
| 2026-05-07 17:02 | 53.48560 | -2.06791 | 13102 ft | 367 kts | 66° |
| 2026-05-07 17:02 | 53.49519 | -2.02774 | 13829 ft | 371 kts | 66° |
| 2026-05-07 17:02 | 53.50484 | -1.98720 | 14478 ft | 376 kts | 66° |
| 2026-05-07 17:03 | 53.51454 | -1.94631 | 15147 ft | 379 kts | 68° |
| 2026-05-07 17:03 | 53.52104 | -1.90307 | 15779 ft | 385 kts | 83° |
| 2026-05-07 17:03 | 53.52092 | -1.85789 | 16438 ft | 390 kts | 97° |
| 2026-05-07 17:03 | 53.51466 | -1.81343 | 17047 ft | 395 kts | 106° |
| 2026-05-07 17:04 | 53.50655 | -1.76937 | 17599 ft | 400 kts | 107° |
| 2026-05-07 17:04 | 53.49813 | -1.72487 | 18332 ft | 401 kts | 107° |
| 2026-05-07 17:04 | 53.48985 | -1.67993 | 18898 ft | 404 kts | 107° |
| 2026-05-07 17:04 | 53.48173 | -1.63458 | 19430 ft | 407 kts | 106° |
| 2026-05-07 17:05 | 53.47362 | -1.58883 | 19964 ft | 411 kts | 106° |
| 2026-05-07 17:05 | 53.46543 | -1.54270 | 20497 ft | 414 kts | 107° |
| 2026-05-07 17:05 | 53.45710 | -1.49624 | 21020 ft | 417 kts | 107° |
| 2026-05-07 17:05 | 53.44869 | -1.44942 | 21552 ft | 421 kts | 107° |
| 2026-05-07 17:06 | 53.44018 | -1.40223 | 22063 ft | 424 kts | 107° |
| 2026-05-07 17:06 | 53.43162 | -1.35475 | 22568 ft | 427 kts | 107° |
| 2026-05-07 17:06 | 53.42294 | -1.30679 | 23053 ft | 430 kts | 107° |
| 2026-05-07 17:06 | 53.41434 | -1.25935 | 23530 ft | 434 kts | 107° |
| 2026-05-07 17:07 | 53.40554 | -1.21086 | 23943 ft | 436 kts | 107° |
| 2026-05-07 17:07 | 53.39666 | -1.16208 | 24353 ft | 439 kts | 107° |
| 2026-05-07 17:07 | 53.38770 | -1.11305 | 24754 ft | 441 kts | 107° |
| 2026-05-07 17:07 | 53.37866 | -1.06379 | 25143 ft | 444 kts | 107° |
| 2026-05-07 17:08 | 53.36956 | -1.01427 | 25534 ft | 446 kts | 107° |
| 2026-05-07 17:08 | 53.36038 | -0.96440 | 25908 ft | 449 kts | 108° |
| 2026-05-07 17:08 | 53.35114 | -0.91438 | 26268 ft | 451 kts | 108° |
| 2026-05-07 17:08 | 53.34184 | -0.86410 | 26629 ft | 454 kts | 108° |
| 2026-05-07 17:09 | 53.33246 | -0.81357 | 26994 ft | 456 kts | 108° |
| 2026-05-07 17:09 | 53.32303 | -0.76280 | 27338 ft | 458 kts | 108° |
| 2026-05-07 17:09 | 53.31351 | -0.71176 | 27683 ft | 461 kts | 108° |
| 2026-05-07 17:09 | 53.30391 | -0.66050 | 28005 ft | 463 kts | 108° |
| 2026-05-07 17:10 | 53.29424 | -0.60903 | 28341 ft | 465 kts | 108° |
| 2026-05-07 17:10 | 53.28451 | -0.55734 | 28663 ft | 467 kts | 108° |
| 2026-05-07 17:10 | 53.27472 | -0.50540 | 28957 ft | 470 kts | 108° |
| 2026-05-07 17:10 | 53.26485 | -0.45319 | 29265 ft | 472 kts | 109° |
| 2026-05-07 17:11 | 53.25490 | -0.40071 | 29565 ft | 474 kts | 109° |
| 2026-05-07 17:11 | 53.24489 | -0.34814 | 29842 ft | 476 kts | 109° |
| 2026-05-07 17:11 | 53.23496 | -0.29607 | 30151 ft | 477 kts | 109° |
| 2026-05-07 17:11 | 53.22487 | -0.24340 | 30537 ft | 475 kts | 109° |
| 2026-05-07 17:12 | 53.21481 | -0.19095 | 30946 ft | 472 kts | 109° |
| 2026-05-07 17:12 | 53.20478 | -0.13880 | 31285 ft | 472 kts | 109° |
| 2026-05-07 17:12 | 53.19473 | -0.08667 | 31567 ft | 473 kts | 109° |
| 2026-05-07 17:12 | 53.18467 | -0.03464 | 31897 ft | 472 kts | 109° |
| 2026-05-07 17:13 | 53.17456 | 0.01745 | 32272 ft | 470 kts | 109° |
| 2026-05-07 17:13 | 53.16448 | 0.06921 | 32617 ft | 469 kts | 109° |
| 2026-05-07 17:13 | 53.15441 | 0.12076 | 32918 ft | 469 kts | 109° |
| 2026-05-07 17:13 | 53.14430 | 0.17238 | 33219 ft | 468 kts | 109° |
| 2026-05-07 17:14 | 53.13420 | 0.22388 | 33553 ft | 467 kts | 109° |
| 2026-05-07 17:14 | 53.12411 | 0.27521 | 33903 ft | 466 kts | 110° |
| 2026-05-07 17:14 | 53.11400 | 0.32652 | 34164 ft | 466 kts | 110° |
| 2026-05-07 17:14 | 53.10388 | 0.37771 | 34390 ft | 465 kts | 110° |
| 2026-05-07 17:15 | 53.09375 | 0.42882 | 34627 ft | 465 kts | 110° |
| 2026-05-07 17:15 | 53.08358 | 0.48001 | 34844 ft | 465 kts | 110° |
| 2026-05-07 17:15 | 53.07341 | 0.53110 | 35036 ft | 466 kts | 110° |
| 2026-05-07 17:15 | 53.06321 | 0.58219 | 35264 ft | 465 kts | 110° |
| 2026-05-07 17:16 | 53.05299 | 0.63324 | 35512 ft | 464 kts | 110° |
| 2026-05-07 17:16 | 53.04277 | 0.68414 | 35702 ft | 465 kts | 110° |
| 2026-05-07 17:16 | 53.03251 | 0.73510 | 35868 ft | 465 kts | 110° |
| 2026-05-07 17:16 | 53.02223 | 0.78607 | 36064 ft | 465 kts | 110° |
| 2026-05-07 17:17 | 53.01193 | 0.83697 | 36288 ft | 464 kts | 110° |
| 2026-05-07 17:17 | 53.00166 | 0.88769 | 36495 ft | 464 kts | 110° |
| 2026-05-07 17:17 | 52.99133 | 0.93852 | 36641 ft | 465 kts | 110° |
| 2026-05-07 17:17 | 52.98094 | 0.98955 | 36811 ft | 466 kts | 109° |
| 2026-05-07 17:18 | 52.97220 | 1.04054 | 37007 ft | 466 kts | 105° |
| 2026-05-07 17:18 | 52.96494 | 1.09315 | 37068 ft | 468 kts | 103° |
| 2026-05-07 17:18 | 52.95157 | 1.19966 | 37085 ft | 474 kts | 103° |
| 2026-05-07 17:19 | 52.93794 | 1.30717 | 37086 ft | 479 kts | 103° |
| 2026-05-07 17:19 | 52.92367 | 1.41523 | 37089 ft | 482 kts | 104° |
| 2026-05-07 17:20 | 52.90901 | 1.52386 | 37084 ft | 483 kts | 104° |
| 2026-05-07 17:20 | 52.89420 | 1.63251 | 37084 ft | 483 kts | 104° |
| 2026-05-07 17:21 | 52.87932 | 1.74102 | 37090 ft | 483 kts | 104° |
| 2026-05-07 17:21 | 52.86436 | 1.84944 | 37084 ft | 482 kts | 104° |
| 2026-05-07 17:22 | 52.84946 | 1.95669 | 37091 ft | 481 kts | 104° |
| 2026-05-07 17:22 | 52.83438 | 2.06440 | 37098 ft | 480 kts | 104° |
| 2026-05-07 17:23 | 52.81923 | 2.17184 | 37089 ft | 479 kts | 104° |
| 2026-05-07 17:23 | 52.80404 | 2.27879 | 37093 ft | 478 kts | 104° |
| 2026-05-07 17:24 | 52.78873 | 2.38588 | 37095 ft | 478 kts | 104° |
| 2026-05-07 17:24 | 52.77337 | 2.49252 | 37098 ft | 477 kts | 104° |
| 2026-05-07 17:25 | 52.75793 | 2.59904 | 37093 ft | 477 kts | 105° |
| 2026-05-07 17:25 | 52.74249 | 2.70482 | 37093 ft | 476 kts | 105° |
| 2026-05-07 17:26 | 52.72687 | 2.81107 | 37093 ft | 476 kts | 105° |
| 2026-05-07 17:26 | 52.71117 | 2.91719 | 37098 ft | 476 kts | 105° |
| 2026-05-07 17:27 | 52.69537 | 3.02324 | 37095 ft | 476 kts | 105° |
| 2026-05-07 17:27 | 52.67943 | 3.12958 | 37095 ft | 476 kts | 105° |
| 2026-05-07 17:28 | 52.66345 | 3.23547 | 37093 ft | 476 kts | 105° |
| 2026-05-07 17:28 | 52.64718 | 3.34101 | 37093 ft | 476 kts | 109° |
| 2026-05-07 17:29 | 52.61824 | 3.43720 | 37096 ft | 471 kts | 127° |
| 2026-05-07 17:29 | 52.58041 | 3.52508 | 37092 ft | 471 kts | 127° |
| 2026-05-07 17:30 | 52.54238 | 3.61286 | 37096 ft | 471 kts | 127° |
| 2026-05-07 17:30 | 52.50461 | 3.70099 | 37092 ft | 471 kts | 127° |
| 2026-05-07 17:31 | 52.46727 | 3.78855 | 37093 ft | 471 kts | 127° |
| 2026-05-07 17:31 | 52.42959 | 3.87661 | 37083 ft | 471 kts | 128° |
| 2026-05-07 17:32 | 52.38976 | 3.96222 | 37021 ft | 471 kts | 132° |
| 2026-05-07 17:32 | 52.36792 | 4.00206 | 36828 ft | 473 kts | 139° |